Terminal Aerodrome Forecast
Issued by NWS Bismarck, ND

Home | Current Version | Previous Version | Text Only | Print | Product List | Glossary Off
Versions: 1 2 3 4 5 6 7 8 9 10 11 12 13 14 15 16 17 18 19 20 21 22

725
FTUS43 KBIS 131629 AAA
TAFISN
TAF AMD
KISN 131629Z 1316/1412 32017G22KT P6SM SCT180
      TEMPO 1317/1319 SCT015 BKN025
     FM131900 32015G20KT P6SM SCT025 BKN035
     FM132200 32011KT P6SM OVC200
     FM140600 31014G19KT 1SM -SN BR OVC018=

USA.gov is the U.S. government's official web portal to all federal, state and local government web resources and services.